createdAt,value
2019-02-15T00:00:12.391Z,94
2019-02-15T00:01:12.396Z,94
2019-02-15T00:02:12.354Z,94
2019-02-15T00:03:12.001Z,94
2019-02-15T00:04:12.403Z,94
2019-02-15T00:05:12.458Z,94
2019-02-15T00:06:12.405Z,94
2019-02-15T00:07:12.155Z,94
2019-02-15T00:08:14.285Z,94
2019-02-15T00:09:12.407Z,94
2019-02-15T00:11:54.279Z,94
2019-02-15T00:12:02.229Z,94
2019-02-15T00:13:02.576Z,94
2019-02-15T00:14:02.885Z,94
2019-02-15T00:15:03.576Z,94
2019-02-15T00:16:03.968Z,94
2019-02-15T00:17:02.985Z,94
2019-02-15T00:18:03.635Z,94
2019-02-15T00:19:07.132Z,94
2019-02-15T00:20:03.266Z,94
2019-02-15T00:21:03.296Z,94
2019-02-15T00:22:06.311Z,95
2019-02-15T00:23:04.130Z,95
2019-02-15T00:24:03.371Z,95
2019-02-15T00:25:03.517Z,95
2019-02-15T00:26:04.196Z,95
2019-02-15T00:27:03.311Z,95
2019-02-15T00:28:02.893Z,95
2019-02-15T00:29:06.214Z,95
2019-02-15T00:30:03.903Z,95
2019-02-15T00:31:04.457Z,95
2019-02-15T00:32:03.807Z,95
2019-02-15T00:33:04.319Z,95
2019-02-15T00:34:03.286Z,95
2019-02-15T00:35:05.267Z,95
2019-02-15T00:36:04.767Z,95
2019-02-15T00:37:04.284Z,94
2019-02-15T00:38:03.259Z,94
2019-02-15T00:39:07.305Z,94
2019-02-15T00:40:03.959Z,94
2019-02-15T00:41:02.661Z,94
2019-02-15T00:42:04.190Z,94
2019-02-15T00:43:03.258Z,94
2019-02-15T00:44:03.122Z,94
2019-02-15T00:45:03.811Z,94
2019-02-15T00:46:03.563Z,94
2019-02-15T00:47:03.008Z,94
2019-02-15T00:48:02.717Z,94
2019-02-15T00:49:02.515Z,94
2019-02-15T00:50:05.439Z,94
2019-02-15T00:51:03.488Z,94
2019-02-15T00:52:02.547Z,94
2019-02-15T00:53:02.959Z,94
2019-02-15T00:54:02.549Z,94
2019-02-15T00:55:04.022Z,94
2019-02-15T00:56:02.693Z,94
2019-02-15T00:57:04.536Z,94
2019-02-15T00:58:02.576Z,94
2019-02-15T00:59:02.377Z,94
2019-02-15T01:00:02.338Z,94
2019-02-15T01:01:02.934Z,94
2019-02-15T01:02:02.886Z,94
2019-02-15T01:03:03.101Z,94
2019-02-15T01:04:03.233Z,94
2019-02-15T01:05:03.210Z,94
2019-02-15T01:06:03.344Z,94
2019-02-15T01:07:02.567Z,94
2019-02-15T01:08:02.343Z,94
2019-02-15T01:09:02.211Z,94
2019-02-15T01:10:02.919Z,95
2019-02-15T01:11:02.149Z,95
2019-02-15T01:12:03.308Z,95
2019-02-15T01:13:02.499Z,94
2019-02-15T01:14:02.667Z,94
2019-02-15T01:15:02.254Z,94
2019-02-15T01:16:03.256Z,94
2019-02-15T01:17:02.617Z,94
2019-02-15T01:18:03.372Z,94
2019-02-15T01:19:02.327Z,94
2019-02-15T01:20:02.393Z,94
2019-02-15T01:21:02.368Z,94
2019-02-15T01:22:02.342Z,94
2019-02-15T01:23:02.557Z,94
2019-02-15T01:24:02.638Z,94
2019-02-15T01:25:02.874Z,94
2019-02-15T01:26:03.497Z,94
2019-02-15T01:27:03.184Z,94
2019-02-15T01:28:02.620Z,94
2019-02-15T01:29:02.644Z,94
2019-02-15T01:30:04.885Z,94
2019-02-15T01:31:02.638Z,94
2019-02-15T01:32:02.721Z,94
2019-02-15T01:33:02.785Z,94
2019-02-15T01:34:03.492Z,94
2019-02-15T01:35:03.017Z,95
2019-02-15T01:36:02.201Z,95
2019-02-15T01:37:03.018Z,95
2019-02-15T01:38:02.707Z,95
2019-02-15T01:39:02.745Z,95
2019-02-15T01:40:03.165Z,95
2019-02-15T01:41:02.923Z,95
2019-02-15T01:42:02.518Z,95
2019-02-15T01:43:02.750Z,95
2019-02-15T01:44:04.353Z,95
2019-02-15T01:45:02.257Z,95
2019-02-15T01:46:03.283Z,95
2019-02-15T01:47:02.666Z,95
2019-02-15T01:48:02.687Z,95
2019-02-15T01:49:02.233Z,95
2019-02-15T01:50:03.171Z,95
2019-02-15T01:51:03.389Z,95
2019-02-15T01:52:04.014Z,95
2019-02-15T01:53:05.276Z,95
2019-02-15T01:54:03.939Z,95
2019-02-15T01:55:04.246Z,95
2019-02-15T01:56:03.177Z,95
2019-02-15T01:57:03.445Z,95
2019-02-15T01:58:02.965Z,95
2019-02-15T01:59:07.716Z,95
2019-02-15T02:00:03.321Z,95
2019-02-15T02:01:03.847Z,95
2019-02-15T02:02:03.523Z,95
2019-02-15T02:03:04.072Z,95
2019-02-15T02:04:04.894Z,95
2019-02-15T02:05:02.825Z,95
2019-02-15T02:06:03.223Z,95
2019-02-15T02:07:02.265Z,95
2019-02-15T02:08:03.476Z,95
2019-02-15T02:09:04.053Z,95
2019-02-15T02:10:02.660Z,95
2019-02-15T02:11:03.674Z,95
2019-02-15T02:12:03.646Z,95
2019-02-15T02:13:04.436Z,95
2019-02-15T02:14:02.857Z,95
2019-02-15T02:15:02.581Z,95
2019-02-15T02:16:02.449Z,95
2019-02-15T02:17:04.530Z,95
2019-02-15T02:18:02.207Z,95
2019-02-15T02:19:03.364Z,95
2019-02-15T02:20:02.922Z,95
2019-02-15T02:21:03.272Z,95
2019-02-15T02:22:02.795Z,95
2019-02-15T02:23:02.843Z,95
2019-02-15T02:24:03.070Z,95
2019-02-15T02:25:02.687Z,95
2019-02-15T02:26:02.694Z,95
2019-02-15T02:27:02.278Z,95
2019-02-15T02:28:03.332Z,95
2019-02-15T02:29:02.384Z,95
2019-02-15T02:30:02.798Z,95
2019-02-15T02:31:02.822Z,95
2019-02-15T02:32:03.425Z,95
2019-02-15T02:33:03.895Z,95
2019-02-15T02:34:02.831Z,95
2019-02-15T02:35:03.640Z,95
2019-02-15T02:36:02.700Z,95
2019-02-15T02:37:04.246Z,95
2019-02-15T02:38:02.846Z,95
2019-02-15T02:39:03.847Z,95
2019-02-15T02:40:02.634Z,95
2019-02-15T02:41:03.581Z,95
2019-02-15T02:42:02.777Z,95
2019-02-15T02:43:02.353Z,95
2019-02-15T02:44:03.689Z,95
2019-02-15T02:45:03.619Z,95
2019-02-15T02:46:03.136Z,95
2019-02-15T02:47:06.703Z,95
2019-02-15T02:48:02.564Z,95
2019-02-15T02:49:02.437Z,95
2019-02-15T02:50:03.245Z,95
2019-02-15T02:51:02.754Z,95
2019-02-15T02:52:02.290Z,95
2019-02-15T02:53:04.261Z,95
2019-02-15T02:54:03.743Z,95
2019-02-15T02:55:02.290Z,95
2019-02-15T02:56:02.888Z,95
2019-02-15T02:57:03.255Z,95
2019-02-15T02:58:03.148Z,95
2019-02-15T02:59:02.299Z,95
2019-02-15T03:00:03.268Z,95
2019-02-15T03:01:02.504Z,95
2019-02-15T03:02:02.406Z,95
2019-02-15T03:03:05.083Z,95
2019-02-15T03:04:03.233Z,95
2019-02-15T03:05:02.904Z,95
2019-02-15T03:06:31.507Z,95
2019-02-15T03:07:03.015Z,95
2019-02-15T03:08:02.762Z,95
2019-02-15T03:09:05.228Z,95
2019-02-15T03:10:02.864Z,95
2019-02-15T03:11:04.905Z,95
2019-02-15T03:12:02.363Z,95
2019-02-15T03:13:02.507Z,95
2019-02-15T03:14:10.708Z,95
2019-02-15T03:15:02.622Z,95
2019-02-15T03:16:03.301Z,95
2019-02-15T03:18:17.284Z,96
2019-02-15T03:19:17.529Z,96
2019-02-15T03:20:17.748Z,96
2019-02-15T03:21:19.065Z,96
2019-02-15T03:22:15.433Z,96
2019-02-15T03:23:15.757Z,96
2019-02-15T03:24:16.469Z,96
2019-02-15T03:25:16.572Z,96
2019-02-15T03:26:17.088Z,96
2019-02-15T03:27:16.606Z,96
2019-02-15T03:28:16.039Z,96
2019-02-15T03:29:16.522Z,96
2019-02-15T03:30:15.817Z,96
2019-02-15T03:31:16.613Z,96
2019-02-15T03:32:16.487Z,96
2019-02-15T03:33:15.668Z,96
2019-02-15T03:34:16.323Z,96
2019-02-15T03:35:16.942Z,96
2019-02-15T03:36:16.641Z,96
2019-02-15T03:37:15.596Z,96
2019-02-15T03:38:15.717Z,96
2019-02-15T03:39:16.271Z,96
2019-02-15T03:40:17.474Z,96
2019-02-15T03:41:15.952Z,96
2019-02-15T03:42:16.438Z,96
2019-02-15T03:43:17.078Z,96
2019-02-15T03:44:21.340Z,96
2019-02-15T03:45:16.157Z,96
2019-02-15T03:46:17.097Z,96
2019-02-15T03:47:16.183Z,96
2019-02-15T03:48:17.168Z,96
2019-02-15T03:49:16.611Z,96
2019-02-15T03:50:17.096Z,96
2019-02-15T03:51:17.193Z,96
2019-02-15T03:52:17.823Z,96
2019-02-15T03:53:19.795Z,96
2019-02-15T03:54:16.642Z,96
2019-02-15T03:55:16.376Z,96
2019-02-15T03:56:15.521Z,96
2019-02-15T03:57:15.664Z,96
2019-02-15T03:58:19.128Z,96
2019-02-15T03:59:18.010Z,96
2019-02-15T04:00:15.647Z,96
2019-02-15T04:01:17.130Z,96
2019-02-15T04:02:16.609Z,96
2019-02-15T04:03:16.483Z,96
2019-02-15T04:04:17.337Z,96
2019-02-15T04:05:16.793Z,96
2019-02-15T04:06:15.705Z,96
2019-02-15T04:07:16.585Z,96
2019-02-15T04:08:17.016Z,96
2019-02-15T04:09:15.671Z,96
2019-02-15T04:10:16.265Z,96
2019-02-15T04:11:15.739Z,96
2019-02-15T04:12:17.843Z,96
2019-02-15T04:13:19.498Z,96
2019-02-15T04:14:15.620Z,96
2019-02-15T04:15:16.768Z,96
2019-02-15T04:16:15.766Z,96
2019-02-15T04:17:15.457Z,96
2019-02-15T04:18:16.420Z,96
2019-02-15T04:19:16.942Z,96
2019-02-15T04:20:16.106Z,96
2019-02-15T04:21:16.432Z,96
2019-02-15T04:22:15.514Z,96
2019-02-15T04:23:18.168Z,96
2019-02-15T04:24:16.475Z,96
2019-02-15T04:25:16.567Z,96
2019-02-15T04:27:09.924Z,96
2019-02-15T04:27:18.294Z,96
2019-02-15T04:28:18.053Z,96
2019-02-15T04:29:19.076Z,96
2019-02-15T04:30:17.693Z,96
2019-02-15T04:31:18.286Z,96
2019-02-15T04:32:18.542Z,96
2019-02-15T04:33:19.172Z,96
2019-02-15T04:34:19.316Z,96
2019-02-15T04:35:19.159Z,96
2019-02-15T04:36:20.191Z,96
2019-02-15T04:37:20.638Z,96
2019-02-15T04:38:19.198Z,96
2019-02-15T04:39:18.509Z,96
2019-02-15T04:40:19.151Z,96
2019-02-15T04:41:20.021Z,96
2019-02-15T04:42:18.418Z,96
2019-02-15T04:43:18.398Z,96
2019-02-15T04:44:18.681Z,96
2019-02-15T04:45:17.803Z,96
2019-02-15T04:46:18.993Z,96
2019-02-15T04:47:20.809Z,96
2019-02-15T04:48:18.691Z,96
2019-02-15T04:49:18.994Z,96
2019-02-15T04:50:21.333Z,96
2019-02-15T04:51:20.247Z,96
2019-02-15T04:52:18.690Z,96
2019-02-15T04:53:46.795Z,96
2019-02-15T04:54:18.463Z,96
2019-02-15T04:55:20.788Z,96
2019-02-15T04:56:19.277Z,96
2019-02-15T04:57:20.076Z,96
2019-02-15T04:58:18.777Z,96
2019-02-15T04:59:17.898Z,96
2019-02-15T05:00:18.248Z,96
2019-02-15T05:01:17.658Z,96
2019-02-15T05:02:19.436Z,96
2019-02-15T05:03:19.469Z,96
2019-02-15T05:04:18.828Z,96
2019-02-15T05:05:19.032Z,96
2019-02-15T05:06:20.424Z,96
2019-02-15T05:07:18.116Z,96
2019-02-15T05:08:17.833Z,96
2019-02-15T05:09:17.877Z,96
2019-02-15T05:10:19.126Z,96
2019-02-15T05:11:17.887Z,96
2019-02-15T05:12:17.977Z,96
2019-02-15T05:13:17.687Z,96
2019-02-15T05:14:18.812Z,96
2019-02-15T05:15:18.197Z,96
2019-02-15T05:16:17.815Z,96
2019-02-15T05:17:17.914Z,96
2019-02-15T05:18:18.623Z,96
2019-02-15T05:19:18.378Z,96
2019-02-15T05:20:18.103Z,96
2019-02-15T05:21:18.049Z,96
2019-02-15T05:22:17.745Z,96
2019-02-15T05:23:17.984Z,96
2019-02-15T05:24:17.955Z,96
2019-02-15T05:25:17.867Z,96
2019-02-15T05:26:18.361Z,96
2019-02-15T05:27:17.964Z,96
2019-02-15T05:28:17.922Z,96
2019-02-15T05:29:18.308Z,96
2019-02-15T05:30:18.461Z,96
2019-02-15T05:31:18.571Z,96
2019-02-15T05:32:18.303Z,96
2019-02-15T05:33:18.714Z,96
2019-02-15T05:34:19.865Z,96
2019-02-15T05:35:18.137Z,96
2019-02-15T05:36:18.223Z,96
2019-02-15T05:37:19.222Z,96
2019-02-15T05:38:19.133Z,96
2019-02-15T05:39:17.965Z,96
2019-02-15T05:40:18.305Z,96
2019-02-15T05:41:18.303Z,96
2019-02-15T05:42:17.888Z,96
2019-02-15T05:43:19.530Z,96
2019-02-15T05:44:18.948Z,96
2019-02-15T05:45:18.021Z,96
2019-02-15T05:46:18.111Z,96
2019-02-15T05:47:18.067Z,96
2019-02-15T05:48:18.589Z,96
2019-02-15T05:49:18.661Z,96
2019-02-15T05:50:18.391Z,96
2019-02-15T05:51:18.685Z,96
2019-02-15T05:52:19.017Z,96
2019-02-15T05:53:18.569Z,96
2019-02-15T05:54:18.960Z,96
2019-02-15T05:55:18.298Z,96
2019-02-15T05:56:18.271Z,96
2019-02-15T05:57:18.081Z,96
2019-02-15T05:58:19.587Z,96
2019-02-15T05:59:18.551Z,96
2019-02-15T06:00:18.062Z,96
2019-02-15T06:01:17.956Z,96
2019-02-15T06:02:18.658Z,96
2019-02-15T06:03:18.737Z,96
2019-02-15T06:04:18.073Z,96
2019-02-15T06:05:18.096Z,96
2019-02-15T06:06:18.881Z,96
2019-02-15T06:07:19.178Z,96
2019-02-15T06:08:18.175Z,96
2019-02-15T06:09:19.178Z,96
2019-02-15T06:10:18.035Z,96
2019-02-15T06:11:17.952Z,96
2019-02-15T06:12:17.982Z,96
2019-02-15T06:13:18.625Z,96
2019-02-15T06:14:18.779Z,96
2019-02-15T06:15:17.846Z,96
2019-02-15T06:16:19.783Z,96
2019-02-15T06:17:18.719Z,96
2019-02-15T06:18:17.952Z,96
2019-02-15T06:19:18.804Z,96
2019-02-15T06:20:18.317Z,96
2019-02-15T06:21:18.295Z,96
2019-02-15T06:22:18.058Z,96
2019-02-15T06:23:18.011Z,96
2019-02-15T06:24:17.990Z,96
2019-02-15T06:25:19.503Z,96
2019-02-15T06:26:18.505Z,96
2019-02-15T06:27:19.185Z,96
2019-02-15T06:28:18.869Z,96
2019-02-15T06:29:18.984Z,96
2019-02-15T06:30:19.219Z,96
2019-02-15T06:31:18.251Z,96
2019-02-15T06:32:19.108Z,96
2019-02-15T06:33:20.258Z,96
2019-02-15T06:34:18.068Z,96
2019-02-15T06:35:17.906Z,96
2019-02-15T06:36:18.590Z,96
2019-02-15T06:37:17.850Z,96
2019-02-15T06:38:18.051Z,96
2019-02-15T06:39:18.540Z,96
2019-02-15T06:40:18.046Z,96
2019-02-15T06:41:17.959Z,96
2019-02-15T06:42:18.117Z,96
2019-02-15T06:43:18.455Z,96
2019-02-15T06:44:20.101Z,96
2019-02-15T06:45:24.303Z,96
2019-02-15T06:46:18.184Z,96
2019-02-15T06:47:17.794Z,96
2019-02-15T06:48:17.964Z,96
2019-02-15T06:49:17.998Z,96
2019-02-15T06:50:19.062Z,96
2019-02-15T06:51:17.881Z,96
2019-02-15T06:52:34.086Z,96
2019-02-15T06:53:19.577Z,96
2019-02-15T06:54:17.861Z,96
2019-02-15T06:55:18.360Z,96
2019-02-15T06:56:19.387Z,96
2019-02-15T06:57:17.896Z,96
2019-02-15T06:58:19.244Z,96
2019-02-15T06:59:18.707Z,96
2019-02-15T07:00:17.986Z,96
2019-02-15T07:01:18.391Z,96
2019-02-15T07:02:18.348Z,96
2019-02-15T07:03:19.831Z,96
2019-02-15T07:04:17.941Z,96
2019-02-15T07:05:18.171Z,96
2019-02-15T07:06:18.411Z,96
2019-02-15T07:07:18.292Z,96
2019-02-15T07:08:19.216Z,96
2019-02-15T07:09:17.908Z,96
2019-02-15T07:10:18.506Z,96
2019-02-15T07:11:17.850Z,96
2019-02-15T07:12:19.002Z,96
2019-02-15T07:13:18.293Z,96
2019-02-15T07:14:20.792Z,96
2019-02-15T07:15:18.157Z,96
2019-02-15T07:16:18.925Z,96
2019-02-15T07:17:17.945Z,96
2019-02-15T07:18:17.893Z,96
2019-02-15T07:19:19.060Z,96
2019-02-15T07:20:18.755Z,96
2019-02-15T07:21:18.666Z,96
2019-02-15T07:22:18.148Z,96
2019-02-15T07:23:18.893Z,96
2019-02-15T07:24:18.841Z,96
2019-02-15T07:25:18.216Z,96
2019-02-15T07:26:18.503Z,96
2019-02-15T07:27:18.240Z,96
2019-02-15T07:28:19.878Z,96
2019-02-15T07:29:18.852Z,96
2019-02-15T07:30:18.227Z,96
2019-02-15T07:31:18.175Z,96
2019-02-15T07:32:18.234Z,96
2019-02-15T07:33:18.198Z,96
2019-02-15T07:34:18.287Z,96
2019-02-15T07:35:19.616Z,96
2019-02-15T07:38:00.408Z,96
2019-02-15T07:38:11.267Z,96
2019-02-15T07:39:09.466Z,96
2019-02-15T07:40:09.371Z,96
2019-02-15T07:41:09.433Z,96
2019-02-15T07:42:09.523Z,96
2019-02-15T07:43:09.700Z,96
2019-02-15T07:44:09.702Z,96
2019-02-15T07:45:09.462Z,96
2019-02-15T07:46:09.464Z,96
2019-02-15T07:47:10.000Z,96
2019-02-15T07:48:10.693Z,96
2019-02-15T07:49:09.790Z,96
2019-02-15T07:50:09.317Z,96
2019-02-15T07:51:09.905Z,96
2019-02-15T07:52:09.395Z,96
2019-02-15T07:53:09.338Z,96
2019-02-15T07:54:09.438Z,96
2019-02-15T07:55:09.856Z,96
2019-02-15T07:56:09.673Z,96
2019-02-15T07:57:09.531Z,96
2019-02-15T07:58:09.999Z,96
2019-02-15T07:59:09.741Z,96
2019-02-15T08:00:09.377Z,96
2019-02-15T08:01:09.767Z,96
2019-02-15T08:02:09.806Z,96
2019-02-15T08:03:09.534Z,96
2019-02-15T08:04:10.237Z,96
2019-02-15T08:05:09.500Z,96
2019-02-15T08:06:10.339Z,96
2019-02-15T08:07:09.497Z,96
2019-02-15T08:08:09.297Z,96
2019-02-15T08:09:10.672Z,97
2019-02-15T08:10:10.534Z,97
2019-02-15T08:11:09.767Z,97
2019-02-15T08:12:10.457Z,97
2019-02-15T08:13:09.482Z,97
2019-02-15T08:14:14.325Z,97
2019-02-15T08:15:09.874Z,97
2019-02-15T08:16:09.676Z,97
2019-02-15T08:17:09.776Z,96
2019-02-15T08:18:09.481Z,96
2019-02-15T08:19:09.490Z,96
2019-02-15T08:20:09.976Z,96
2019-02-15T08:21:09.501Z,96
2019-02-15T08:22:09.845Z,96
2019-02-15T08:23:11.719Z,96
2019-02-15T08:24:10.121Z,96
2019-02-15T08:25:09.412Z,96
2019-02-15T08:26:10.021Z,96
2019-02-15T08:27:09.498Z,96
2019-02-15T08:28:09.290Z,96
2019-02-15T08:29:09.480Z,96
2019-02-15T08:30:11.776Z,96
2019-02-15T08:31:09.342Z,96
2019-02-15T08:32:09.363Z,96
2019-02-15T08:33:09.446Z,96
2019-02-15T08:34:09.733Z,96
2019-02-15T08:35:09.756Z,96
2019-02-15T08:36:10.786Z,96
2019-02-15T08:37:09.556Z,96
2019-02-15T08:38:09.521Z,96
2019-02-15T08:39:09.836Z,96
2019-02-15T08:40:09.964Z,96
2019-02-15T08:41:09.827Z,96
2019-02-15T08:42:10.054Z,96
2019-02-15T08:43:09.579Z,96
2019-02-15T08:44:09.797Z,96
2019-02-15T08:45:09.440Z,95
2019-02-15T08:46:09.798Z,95
2019-02-15T08:47:09.736Z,95
2019-02-15T08:48:09.689Z,95
2019-02-15T08:49:10.025Z,95
2019-02-15T08:51:02.106Z,94
2019-02-15T08:51:10.078Z,94
2019-02-15T08:52:11.886Z,94
2019-02-15T08:53:09.924Z,94
2019-02-15T08:54:10.200Z,94
2019-02-15T08:55:10.215Z,93
2019-02-15T08:56:10.318Z,93
2019-02-15T08:57:10.147Z,93
2019-02-15T08:58:11.387Z,91
2019-02-15T08:59:10.077Z,91
2019-02-15T09:00:10.262Z,88
2019-02-15T09:02:22.849Z,88
2019-02-15T09:03:22.969Z,85
2019-02-15T09:04:22.737Z,85
2019-02-15T09:05:22.690Z,82
2019-02-15T09:06:23.152Z,82
2019-02-15T09:07:22.631Z,82
2019-02-15T09:08:22.641Z,82
2019-02-15T09:09:22.625Z,82
2019-02-15T09:10:23.230Z,79
2019-02-15T09:11:22.493Z,79
2019-02-15T09:12:23.187Z,79
2019-02-15T09:13:22.743Z,74
2019-02-15T09:14:22.448Z,74
2019-02-15T09:15:23.340Z,72
2019-02-15T09:16:22.938Z,72
2019-02-15T09:17:23.623Z,72
2019-02-15T09:18:22.456Z,69
2019-02-15T09:19:22.662Z,69
2019-02-15T09:20:22.656Z,67
2019-02-15T09:21:22.718Z,67
2019-02-15T09:22:22.625Z,67
2019-02-15T09:23:22.493Z,66
2019-02-15T09:24:22.836Z,66
2019-02-15T09:25:22.497Z,64
2019-02-15T09:26:22.952Z,64
2019-02-15T09:27:22.624Z,64
2019-02-15T09:28:22.884Z,63
2019-02-15T09:29:22.502Z,63
2019-02-15T09:30:22.786Z,61
2019-02-15T09:31:22.955Z,61
2019-02-15T09:32:22.956Z,61
2019-02-15T09:33:22.691Z,61
2019-02-15T09:34:22.690Z,61
2019-02-15T09:35:23.176Z,61
2019-02-15T09:36:22.858Z,61
2019-02-15T09:37:22.764Z,61
2019-02-15T09:38:22.499Z,59
2019-02-15T09:39:22.500Z,59
2019-02-15T09:40:22.521Z,59
2019-02-15T09:41:23.405Z,58
2019-02-15T09:42:22.543Z,58
2019-02-15T09:43:23.111Z,57
2019-02-15T09:44:22.540Z,57
2019-02-15T09:45:23.407Z,57
2019-02-15T09:46:23.599Z,55
2019-02-15T09:47:22.461Z,55
2019-02-15T09:48:22.835Z,55
2019-02-15T09:49:24.329Z,55
2019-02-15T09:50:22.734Z,55
2019-02-15T09:51:22.482Z,53
2019-02-15T09:52:23.231Z,53
2019-02-15T09:53:24.480Z,53
2019-02-15T09:54:24.833Z,53
2019-02-15T09:55:29.094Z,53
2019-02-15T09:56:24.797Z,54
2019-02-15T09:57:23.165Z,54
2019-02-15T09:58:23.050Z,52
2019-02-15T09:59:23.366Z,52
2019-02-15T10:00:23.465Z,52
2019-02-15T10:01:23.299Z,52
2019-02-15T10:02:23.294Z,52
2019-02-15T10:03:22.902Z,52
2019-02-15T10:04:22.703Z,51
2019-02-15T10:07:36.463Z,51
2019-02-15T10:07:46.584Z,51
2019-02-15T10:08:46.364Z,50
2019-02-15T10:09:46.634Z,50
2019-02-15T10:10:46.787Z,50
2019-02-15T10:11:47.630Z,49
2019-02-15T10:12:46.453Z,49
2019-02-15T10:13:48.078Z,49
2019-02-15T10:14:46.313Z,49
2019-02-15T10:15:46.558Z,49
2019-02-15T10:16:46.830Z,49
2019-02-15T10:17:46.509Z,49
2019-02-15T10:18:46.285Z,48
2019-02-15T10:19:46.940Z,48
2019-02-15T10:20:46.884Z,48
2019-02-15T10:21:46.781Z,48
2019-02-15T10:22:46.485Z,48
2019-02-15T10:23:47.096Z,49
2019-02-15T10:24:46.389Z,49
2019-02-15T10:27:27.971Z,49
2019-02-15T10:27:36.988Z,49
2019-02-15T10:28:37.242Z,49
2019-02-15T10:29:37.032Z,49
2019-02-15T10:30:37.171Z,49
2019-02-15T10:31:38.361Z,49
2019-02-15T10:32:37.765Z,49
2019-02-15T10:33:37.065Z,49
2019-02-15T10:34:38.179Z,49
2019-02-15T10:35:37.255Z,49
2019-02-15T10:36:37.148Z,48
2019-02-15T10:37:37.137Z,48
2019-02-15T10:38:37.370Z,48
2019-02-15T10:39:37.409Z,48
2019-02-15T10:40:36.905Z,48
2019-02-15T10:41:37.140Z,48
2019-02-15T10:42:37.433Z,48
2019-02-15T10:43:37.458Z,48
2019-02-15T10:44:37.580Z,47
2019-02-15T10:45:38.159Z,47
2019-02-15T10:46:37.895Z,47
2019-02-15T10:47:37.388Z,47
2019-02-15T10:48:37.934Z,47
2019-02-15T10:49:37.451Z,47
2019-02-15T10:50:37.316Z,47
2019-02-15T10:51:37.990Z,47
2019-02-15T10:52:53.609Z,47
2019-02-15T10:53:37.891Z,47
2019-02-15T10:54:36.991Z,47
2019-02-15T10:55:38.079Z,47
2019-02-15T10:56:37.462Z,47
2019-02-15T10:57:37.175Z,48
2019-02-15T10:58:39.433Z,48
2019-02-15T10:59:37.180Z,48
2019-02-15T11:00:37.115Z,48
2019-02-15T11:01:37.084Z,48
2019-02-15T11:02:37.206Z,48
2019-02-15T11:03:37.029Z,48
2019-02-15T11:04:38.000Z,48
2019-02-15T11:05:37.505Z,48
2019-02-15T11:06:38.430Z,48
2019-02-15T11:07:38.031Z,47
2019-02-15T11:08:36.959Z,47
2019-02-15T11:09:37.804Z,47
2019-02-15T11:10:37.894Z,47
2019-02-15T11:11:37.471Z,47
2019-02-15T11:12:37.592Z,48
2019-02-15T11:13:37.194Z,48
2019-02-15T11:14:37.009Z,47
2019-02-15T11:15:37.237Z,47
2019-02-15T11:16:46.683Z,47
2019-02-15T11:17:37.111Z,47
2019-02-15T11:18:37.403Z,47
2019-02-15T11:19:37.587Z,47
2019-02-15T11:20:37.400Z,47
2019-02-15T11:21:37.129Z,47
2019-02-15T11:22:37.095Z,47
2019-02-15T11:23:36.859Z,47
2019-02-15T11:24:36.931Z,47
2019-02-15T11:25:36.972Z,46
2019-02-15T11:26:38.194Z,46
2019-02-15T11:27:37.055Z,47
2019-02-15T11:28:37.076Z,47
2019-02-15T11:29:38.354Z,47
2019-02-15T11:30:37.898Z,47
2019-02-15T11:31:37.068Z,47
2019-02-15T11:32:36.909Z,46
2019-02-15T11:33:36.921Z,46
2019-02-15T11:34:37.154Z,46
2019-02-15T11:35:37.740Z,46
2019-02-15T11:36:39.039Z,46
2019-02-15T11:37:37.819Z,46
2019-02-15T11:38:37.071Z,46
2019-02-15T11:39:37.905Z,46
2019-02-15T11:40:37.175Z,46
2019-02-15T11:41:36.866Z,46
2019-02-15T11:42:37.578Z,45
2019-02-15T11:43:37.119Z,45
2019-02-15T11:44:36.903Z,45
2019-02-15T11:45:36.888Z,45
2019-02-15T11:53:10.087Z,45
2019-02-15T11:53:20.589Z,45
2019-02-15T11:54:23.361Z,46
2019-02-15T11:55:21.440Z,45
2019-02-15T11:56:20.901Z,45
2019-02-15T11:57:21.231Z,45
2019-02-15T11:58:20.713Z,45
2019-02-15T11:59:20.939Z,45
2019-02-15T12:00:22.976Z,45
2019-02-15T12:01:21.381Z,45
2019-02-15T12:02:22.050Z,45
2019-02-15T12:03:20.894Z,45
2019-02-15T12:04:20.683Z,45
2019-02-15T12:05:21.531Z,45
2019-02-15T12:06:20.679Z,45
2019-02-15T12:07:20.667Z,45
2019-02-15T12:08:22.506Z,45
2019-02-15T12:09:20.352Z,45
2019-02-15T12:10:21.506Z,45
2019-02-15T12:11:20.738Z,44
2019-02-15T12:12:23.539Z,44
2019-02-15T12:13:20.569Z,45
2019-02-15T12:14:20.699Z,45
2019-02-15T12:15:20.688Z,45
2019-02-15T12:16:20.448Z,45
2019-02-15T12:17:20.395Z,45
2019-02-15T12:18:20.282Z,45
2019-02-15T12:19:20.553Z,45
2019-02-15T12:20:20.299Z,45
2019-02-15T12:21:20.627Z,44
2019-02-15T12:22:21.465Z,44
2019-02-15T12:23:20.383Z,44
2019-02-15T12:24:22.034Z,44
2019-02-15T12:25:20.869Z,44
2019-02-15T12:26:20.652Z,43
2019-02-15T12:27:22.184Z,43
2019-02-15T12:28:20.546Z,44
2019-02-15T12:29:20.802Z,44
2019-02-15T12:30:21.203Z,44
2019-02-15T12:31:20.883Z,42
2019-02-15T12:32:21.614Z,42
2019-02-15T12:33:21.828Z,42
2019-02-15T12:34:21.594Z,43
2019-02-15T12:35:20.959Z,43
2019-02-15T12:36:21.370Z,42
2019-02-15T12:37:20.859Z,42
2019-02-15T12:38:20.755Z,42
2019-02-15T12:39:20.053Z,42
2019-02-15T12:40:20.327Z,42
2019-02-15T12:41:21.283Z,42
2019-02-15T12:42:21.280Z,42
2019-02-15T12:43:20.205Z,42
2019-02-15T12:44:21.043Z,41
2019-02-15T12:45:20.248Z,41
2019-02-15T12:46:20.520Z,42
2019-02-15T12:47:22.488Z,42
2019-02-15T12:48:22.832Z,42
2019-02-15T12:49:22.828Z,42
2019-02-15T12:50:24.114Z,42
2019-02-15T12:51:25.367Z,42
2019-02-15T12:52:22.595Z,42
2019-02-15T12:53:21.993Z,42
2019-02-15T12:54:26.656Z,42
2019-02-15T12:55:38.408Z,42
2019-02-15T12:56:23.465Z,42
2019-02-15T12:57:24.400Z,42
2019-02-15T12:58:28.757Z,42
2019-02-15T12:59:23.154Z,42
2019-02-15T13:00:25.902Z,42
2019-02-15T13:01:22.592Z,42
2019-02-15T13:02:23.333Z,42
2019-02-15T13:03:25.238Z,42
2019-02-15T13:04:34.372Z,42
2019-02-15T13:05:23.222Z,42
2019-02-15T13:06:47.711Z,42
2019-02-15T13:07:36.548Z,42
2019-02-15T13:08:30.118Z,42
2019-02-15T13:09:41.030Z,42
2019-02-15T13:10:45.568Z,42
2019-02-15T13:11:50.605Z,42
2019-02-15T13:12:46.662Z,42
2019-02-15T13:13:39.740Z,42
2019-02-15T13:15:05.634Z,42
2019-02-15T13:15:58.655Z,42
2019-02-15T13:16:51.716Z,42
2019-02-15T13:18:10.045Z,41
2019-02-15T13:18:38.676Z,41
2019-02-15T13:19:48.965Z,42
2019-02-15T13:20:53.687Z,42
2019-02-15T13:21:40.497Z,42
2019-02-15T13:22:41.920Z,42
2019-02-15T13:23:57.392Z,42
2019-02-15T13:24:46.581Z,42
2019-02-15T13:25:51.530Z,42
2019-02-15T13:26:43.338Z,42
2019-02-15T13:27:45.041Z,43
2019-02-15T13:28:57.368Z,43
2019-02-15T13:29:54.823Z,42
2019-02-15T13:30:43.105Z,42
2019-02-15T13:31:35.617Z,42
2019-02-15T13:32:28.263Z,43
2019-02-15T13:33:35.386Z,43
2019-02-15T13:34:35.624Z,43
2019-02-15T13:35:35.507Z,42
2019-02-15T13:36:33.020Z,42
2019-02-15T13:37:37.752Z,42
2019-02-15T13:39:02.737Z,42
2019-02-15T13:39:59.975Z,42
2019-02-15T13:40:38.595Z,42
2019-02-15T13:41:36.952Z,42
2019-02-15T13:43:12.862Z,42
2019-02-15T13:43:50.386Z,42
2019-02-15T13:44:45.273Z,42
2019-02-15T13:46:09.325Z,43
2019-02-15T13:47:04.882Z,43
2019-02-15T13:47:56.828Z,42
2019-02-15T13:48:49.300Z,42
2019-02-15T13:49:38.725Z,42
2019-02-15T13:50:43.270Z,42
2019-02-15T13:51:59.607Z,42
2019-02-15T13:52:41.144Z,42
2019-02-15T13:53:44.025Z,42
2019-02-15T13:54:40.322Z,42
2019-02-15T13:55:41.125Z,42
2019-02-15T13:56:35.440Z,42
2019-02-15T13:57:30.822Z,41
2019-02-15T13:58:45.292Z,41
2019-02-15T13:59:39.544Z,41
2019-02-15T14:00:45.008Z,41
2019-02-15T14:01:32.403Z,41
2019-02-15T14:02:35.230Z,41
2019-02-15T14:03:28.075Z,41
2019-02-15T14:04:51.555Z,41
2019-02-15T14:06:14.502Z,41
2019-02-15T14:07:01.252Z,41
2019-02-15T14:08:01.195Z,41
2019-02-15T14:08:39.817Z,41
2019-02-15T14:09:52.035Z,41
2019-02-15T14:10:52.139Z,42
2019-02-15T14:12:08.826Z,42
2019-02-15T14:13:14.206Z,42
2019-02-15T14:14:22.864Z,41
2019-02-15T14:15:15.711Z,41
2019-02-15T14:15:36.402Z,41
2019-02-15T14:16:31.448Z,41
2019-02-15T14:17:31.612Z,41
2019-02-15T14:18:31.219Z,41
2019-02-15T14:19:31.352Z,41
2019-02-15T14:20:32.803Z,42
2019-02-15T14:21:31.408Z,42
2019-02-15T14:22:31.271Z,42
2019-02-15T14:23:30.963Z,41
2019-02-15T14:24:31.485Z,41
2019-02-15T14:25:31.121Z,42
2019-02-15T14:26:31.778Z,42
2019-02-15T14:27:31.238Z,42